sensor_id;sensor_type;location;lat;lon;timestamp;P1;durP1;ratioP1;P2;durP2;ratioP2
54125;SDS011;40360;52.992;6.796;2023-12-07T00:00:06;19.80;;;11.77;;
54125;SDS011;40360;52.992;6.796;2023-12-07T00:02:32;19.20;;;12.88;;
54125;SDS011;40360;52.992;6.796;2023-12-07T00:04:58;19.58;;;11.73;;
54125;SDS011;40360;52.992;6.796;2023-12-07T00:07:23;17.92;;;12.30;;
54125;SDS011;40360;52.992;6.796;2023-12-07T00:09:49;18.98;;;12.45;;
54125;SDS011;40360;52.992;6.796;2023-12-07T00:12:15;18.75;;;13.07;;
54125;SDS011;40360;52.992;6.796;2023-12-07T00:14:40;18.55;;;12.48;;
54125;SDS011;40360;52.992;6.796;2023-12-07T00:17:06;16.40;;;12.32;;
54125;SDS011;40360;52.992;6.796;2023-12-07T00:19:32;20.55;;;12.95;;
54125;SDS011;40360;52.992;6.796;2023-12-07T00:21:58;20.67;;;12.82;;
54125;SDS011;40360;52.992;6.796;2023-12-07T00:24:24;15.80;;;11.27;;
54125;SDS011;40360;52.992;6.796;2023-12-07T00:26:49;16.20;;;11.68;;
54125;SDS011;40360;52.992;6.796;2023-12-07T00:29:15;17.30;;;12.00;;
54125;SDS011;40360;52.992;6.796;2023-12-07T00:31:41;16.02;;;11.88;;
54125;SDS011;40360;52.992;6.796;2023-12-07T00:34:06;17.02;;;11.77;;
54125;SDS011;40360;52.992;6.796;2023-12-07T00:36:35;17.48;;;11.15;;
54125;SDS011;40360;52.992;6.796;2023-12-07T00:39:01;15.82;;;11.80;;
54125;SDS011;40360;52.992;6.796;2023-12-07T00:41:29;18.80;;;11.30;;
54125;SDS011;40360;52.992;6.796;2023-12-07T00:43:54;15.45;;;11.20;;
54125;SDS011;40360;52.992;6.796;2023-12-07T00:46:20;16.60;;;12.18;;
54125;SDS011;40360;52.992;6.796;2023-12-07T00:48:46;15.52;;;12.05;;
54125;SDS011;40360;52.992;6.796;2023-12-07T00:51:11;14.98;;;11.18;;
54125;SDS011;40360;52.992;6.796;2023-12-07T00:53:37;17.15;;;11.50;;
54125;SDS011;40360;52.992;6.796;2023-12-07T00:56:03;15.85;;;11.43;;
54125;SDS011;40360;52.992;6.796;2023-12-07T00:58:29;15.43;;;10.35;;
54125;SDS011;40360;52.992;6.796;2023-12-07T01:00:55;16.98;;;10.93;;
54125;SDS011;40360;52.992;6.796;2023-12-07T01:03:21;18.85;;;11.27;;
54125;SDS011;40360;52.992;6.796;2023-12-07T01:05:46;13.70;;;10.43;;
54125;SDS011;40360;52.992;6.796;2023-12-07T01:08:12;12.35;;;9.60;;
54125;SDS011;40360;52.992;6.796;2023-12-07T01:10:37;17.58;;;10.45;;
54125;SDS011;40360;52.992;6.796;2023-12-07T01:13:04;15.00;;;10.32;;
54125;SDS011;40360;52.992;6.796;2023-12-07T01:15:30;15.38;;;10.05;;
54125;SDS011;40360;52.992;6.796;2023-12-07T01:17:56;14.23;;;10.27;;
54125;SDS011;40360;52.992;6.796;2023-12-07T01:20:21;14.57;;;10.52;;
54125;SDS011;40360;52.992;6.796;2023-12-07T01:22:47;15.00;;;10.02;;
54125;SDS011;40360;52.992;6.796;2023-12-07T01:25:13;14.45;;;10.30;;
54125;SDS011;40360;52.992;6.796;2023-12-07T01:27:45;16.48;;;11.35;;
54125;SDS011;40360;52.992;6.796;2023-12-07T01:30:13;16.70;;;10.68;;
54125;SDS011;40360;52.992;6.796;2023-12-07T01:32:39;12.95;;;10.02;;
54125;SDS011;40360;52.992;6.796;2023-12-07T01:35:05;13.52;;;9.85;;
54125;SDS011;40360;52.992;6.796;2023-12-07T01:37:31;15.45;;;10.40;;
54125;SDS011;40360;52.992;6.796;2023-12-07T01:39:57;14.45;;;10.25;;
54125;SDS011;40360;52.992;6.796;2023-12-07T01:42:22;14.27;;;10.35;;
54125;SDS011;40360;52.992;6.796;2023-12-07T01:44:49;16.90;;;9.80;;
54125;SDS011;40360;52.992;6.796;2023-12-07T01:47:15;14.65;;;9.57;;
54125;SDS011;40360;52.992;6.796;2023-12-07T01:49:41;15.05;;;8.70;;
54125;SDS011;40360;52.992;6.796;2023-12-07T01:52:07;13.38;;;10.07;;
54125;SDS011;40360;52.992;6.796;2023-12-07T01:54:35;14.60;;;9.30;;
54125;SDS011;40360;52.992;6.796;2023-12-07T01:57:01;14.80;;;9.48;;
54125;SDS011;40360;52.992;6.796;2023-12-07T01:59:27;15.15;;;9.35;;
54125;SDS011;40360;52.992;6.796;2023-12-07T02:01:53;15.38;;;9.93;;
54125;SDS011;40360;52.992;6.796;2023-12-07T02:04:19;13.93;;;9.60;;
54125;SDS011;40360;52.992;6.796;2023-12-07T02:06:44;12.93;;;9.15;;
54125;SDS011;40360;52.992;6.796;2023-12-07T02:09:10;14.88;;;10.20;;
54125;SDS011;40360;52.992;6.796;2023-12-07T02:11:35;13.52;;;9.38;;
54125;SDS011;40360;52.992;6.796;2023-12-07T02:14:01;14.23;;;10.52;;
54125;SDS011;40360;52.992;6.796;2023-12-07T02:16:33;16.52;;;9.77;;
54125;SDS011;40360;52.992;6.796;2023-12-07T02:19:17;19.75;;;10.02;;
54125;SDS011;40360;52.992;6.796;2023-12-07T02:22:12;17.95;;;10.65;;
54125;SDS011;40360;52.992;6.796;2023-12-07T02:24:53;17.95;;;10.15;;
54125;SDS011;40360;52.992;6.796;2023-12-07T02:30:01;20.55;;;9.85;;
54125;SDS011;40360;52.992;6.796;2023-12-07T02:32:27;15.10;;;10.98;;
54125;SDS011;40360;52.992;6.796;2023-12-07T02:34:53;16.00;;;11.18;;
54125;SDS011;40360;52.992;6.796;2023-12-07T02:37:19;14.75;;;10.70;;
54125;SDS011;40360;52.992;6.796;2023-12-07T02:39:47;15.00;;;10.30;;
54125;SDS011;40360;52.992;6.796;2023-12-07T02:42:14;17.90;;;11.43;;
54125;SDS011;40360;52.992;6.796;2023-12-07T02:44:41;16.42;;;10.75;;
54125;SDS011;40360;52.992;6.796;2023-12-07T02:47:08;17.75;;;10.77;;
54125;SDS011;40360;52.992;6.796;2023-12-07T02:49:34;19.30;;;11.77;;
54125;SDS011;40360;52.992;6.796;2023-12-07T02:51:59;17.48;;;11.18;;
54125;SDS011;40360;52.992;6.796;2023-12-07T02:54:25;17.23;;;10.50;;
54125;SDS011;40360;52.992;6.796;2023-12-07T02:56:51;19.83;;;12.27;;
54125;SDS011;40360;52.992;6.796;2023-12-07T02:59:16;17.60;;;11.65;;
54125;SDS011;40360;52.992;6.796;2023-12-07T03:01:42;18.17;;;12.15;;
54125;SDS011;40360;52.992;6.796;2023-12-07T03:04:08;14.75;;;10.80;;
54125;SDS011;40360;52.992;6.796;2023-12-07T03:06:34;15.98;;;11.07;;
54125;SDS011;40360;52.992;6.796;2023-12-07T03:08:59;16.80;;;11.15;;
54125;SDS011;40360;52.992;6.796;2023-12-07T03:11:25;17.70;;;11.80;;
54125;SDS011;40360;52.992;6.796;2023-12-07T03:13:50;17.45;;;11.88;;
54125;SDS011;40360;52.992;6.796;2023-12-07T03:16:16;17.27;;;12.27;;
54125;SDS011;40360;52.992;6.796;2023-12-07T03:18:42;18.13;;;11.68;;
54125;SDS011;40360;52.992;6.796;2023-12-07T03:21:07;22.67;;;12.32;;
54125;SDS011;40360;52.992;6.796;2023-12-07T03:23:33;17.42;;;11.95;;
54125;SDS011;40360;52.992;6.796;2023-12-07T03:25:59;17.35;;;11.13;;
54125;SDS011;40360;52.992;6.796;2023-12-07T03:28:24;21.20;;;11.75;;
54125;SDS011;40360;52.992;6.796;2023-12-07T03:30:50;16.15;;;10.80;;
54125;SDS011;40360;52.992;6.796;2023-12-07T03:33:16;20.40;;;12.18;;
54125;SDS011;40360;52.992;6.796;2023-12-07T03:35:41;18.85;;;12.07;;
54125;SDS011;40360;52.992;6.796;2023-12-07T03:38:07;19.90;;;12.20;;
54125;SDS011;40360;52.992;6.796;2023-12-07T03:40:33;16.85;;;11.43;;
54125;SDS011;40360;52.992;6.796;2023-12-07T03:42:58;17.65;;;11.45;;
54125;SDS011;40360;52.992;6.796;2023-12-07T03:45:24;19.88;;;11.93;;
54125;SDS011;40360;52.992;6.796;2023-12-07T03:47:50;18.50;;;11.38;;
54125;SDS011;40360;52.992;6.796;2023-12-07T03:50:15;17.13;;;11.82;;
54125;SDS011;40360;52.992;6.796;2023-12-07T03:52:41;18.88;;;12.50;;
54125;SDS011;40360;52.992;6.796;2023-12-07T03:55:07;18.65;;;12.50;;
54125;SDS011;40360;52.992;6.796;2023-12-07T03:57:33;16.02;;;11.90;;
54125;SDS011;40360;52.992;6.796;2023-12-07T03:59:59;19.38;;;12.60;;
54125;SDS011;40360;52.992;6.796;2023-12-07T04:02:25;17.27;;;12.30;;
54125;SDS011;40360;52.992;6.796;2023-12-07T04:04:50;19.60;;;12.30;;
54125;SDS011;40360;52.992;6.796;2023-12-07T04:07:16;21.40;;;13.60;;
54125;SDS011;40360;52.992;6.796;2023-12-07T04:09:41;21.02;;;12.48;;
54125;SDS011;40360;52.992;6.796;2023-12-07T04:12:07;19.80;;;13.48;;
54125;SDS011;40360;52.992;6.796;2023-12-07T04:14:33;18.40;;;13.30;;
54125;SDS011;40360;52.992;6.796;2023-12-07T04:16:58;22.02;;;13.75;;
54125;SDS011;40360;52.992;6.796;2023-12-07T04:19:24;23.23;;;13.73;;
54125;SDS011;40360;52.992;6.796;2023-12-07T04:21:50;20.08;;;14.10;;
54125;SDS011;40360;52.992;6.796;2023-12-07T04:24:15;23.02;;;14.25;;
54125;SDS011;40360;52.992;6.796;2023-12-07T04:26:41;22.00;;;13.65;;
54125;SDS011;40360;52.992;6.796;2023-12-07T04:29:07;23.92;;;15.00;;
54125;SDS011;40360;52.992;6.796;2023-12-07T04:31:32;23.98;;;14.70;;
54125;SDS011;40360;52.992;6.796;2023-12-07T04:34:00;26.35;;;16.50;;
54125;SDS011;40360;52.992;6.796;2023-12-07T04:36:26;24.52;;;14.95;;
54125;SDS011;40360;52.992;6.796;2023-12-07T04:38:52;23.48;;;14.90;;
54125;SDS011;40360;52.992;6.796;2023-12-07T04:41:17;23.88;;;15.18;;
54125;SDS011;40360;52.992;6.796;2023-12-07T04:43:43;21.95;;;14.77;;
54125;SDS011;40360;52.992;6.796;2023-12-07T04:46:09;25.88;;;14.48;;
54125;SDS011;40360;52.992;6.796;2023-12-07T04:48:34;24.23;;;14.98;;
54125;SDS011;40360;52.992;6.796;2023-12-07T04:51:00;25.92;;;14.18;;
54125;SDS011;40360;52.992;6.796;2023-12-07T04:53:26;24.65;;;15.50;;
54125;SDS011;40360;52.992;6.796;2023-12-07T04:55:52;23.20;;;14.77;;
54125;SDS011;40360;52.992;6.796;2023-12-07T04:58:18;29.42;;;16.10;;
54125;SDS011;40360;52.992;6.796;2023-12-07T05:00:44;23.55;;;14.30;;
54125;SDS011;40360;52.992;6.796;2023-12-07T05:03:09;23.77;;;15.00;;
54125;SDS011;40360;52.992;6.796;2023-12-07T05:05:35;19.95;;;13.38;;
54125;SDS011;40360;52.992;6.796;2023-12-07T05:08:01;24.98;;;14.88;;
54125;SDS011;40360;52.992;6.796;2023-12-07T05:10:27;21.67;;;13.77;;
54125;SDS011;40360;52.992;6.796;2023-12-07T05:12:52;22.77;;;14.73;;
54125;SDS011;40360;52.992;6.796;2023-12-07T05:15:18;25.80;;;15.02;;
54125;SDS011;40360;52.992;6.796;2023-12-07T05:17:44;28.65;;;16.35;;
54125;SDS011;40360;52.992;6.796;2023-12-07T05:20:09;23.98;;;15.35;;
54125;SDS011;40360;52.992;6.796;2023-12-07T05:22:37;27.77;;;16.42;;
54125;SDS011;40360;52.992;6.796;2023-12-07T05:25:03;29.60;;;17.23;;
54125;SDS011;40360;52.992;6.796;2023-12-07T05:27:30;31.48;;;16.98;;
54125;SDS011;40360;52.992;6.796;2023-12-07T05:29:55;31.30;;;16.67;;
54125;SDS011;40360;52.992;6.796;2023-12-07T05:32:21;28.08;;;16.17;;
54125;SDS011;40360;52.992;6.796;2023-12-07T05:34:47;32.83;;;16.13;;
54125;SDS011;40360;52.992;6.796;2023-12-07T05:37:12;37.13;;;17.42;;
54125;SDS011;40360;52.992;6.796;2023-12-07T05:39:38;32.55;;;18.63;;
54125;SDS011;40360;52.992;6.796;2023-12-07T05:42:05;32.50;;;16.55;;
54125;SDS011;40360;52.992;6.796;2023-12-07T05:44:31;30.67;;;17.15;;
54125;SDS011;40360;52.992;6.796;2023-12-07T05:46:57;28.98;;;16.83;;
54125;SDS011;40360;52.992;6.796;2023-12-07T05:49:22;28.52;;;16.10;;
54125;SDS011;40360;52.992;6.796;2023-12-07T05:51:48;33.15;;;16.90;;
54125;SDS011;40360;52.992;6.796;2023-12-07T05:54:14;32.15;;;17.55;;
54125;SDS011;40360;52.992;6.796;2023-12-07T05:56:40;31.13;;;17.25;;
54125;SDS011;40360;52.992;6.796;2023-12-07T05:59:06;31.48;;;17.25;;
54125;SDS011;40360;52.992;6.796;2023-12-07T06:01:32;32.08;;;17.73;;
54125;SDS011;40360;52.992;6.796;2023-12-07T06:04:00;37.60;;;17.50;;
54125;SDS011;40360;52.992;6.796;2023-12-07T06:06:26;30.80;;;17.05;;
54125;SDS011;40360;52.992;6.796;2023-12-07T06:08:52;35.45;;;17.92;;
54125;SDS011;40360;52.992;6.796;2023-12-07T06:11:17;31.92;;;17.15;;
54125;SDS011;40360;52.992;6.796;2023-12-07T06:13:44;28.67;;;17.40;;
54125;SDS011;40360;52.992;6.796;2023-12-07T06:16:13;32.42;;;17.77;;
54125;SDS011;40360;52.992;6.796;2023-12-07T06:18:40;30.85;;;16.27;;
54125;SDS011;40360;52.992;6.796;2023-12-07T06:21:07;31.13;;;16.17;;
54125;SDS011;40360;52.992;6.796;2023-12-07T06:23:33;27.67;;;15.02;;
54125;SDS011;40360;52.992;6.796;2023-12-07T06:26:01;33.00;;;16.73;;
54125;SDS011;40360;52.992;6.796;2023-12-07T06:28:27;33.25;;;17.95;;
54125;SDS011;40360;52.992;6.796;2023-12-07T06:30:53;29.35;;;17.70;;
54125;SDS011;40360;52.992;6.796;2023-12-07T06:33:18;28.38;;;16.63;;
54125;SDS011;40360;52.992;6.796;2023-12-07T06:35:45;30.13;;;17.10;;
54125;SDS011;40360;52.992;6.796;2023-12-07T06:38:12;33.15;;;16.98;;
54125;SDS011;40360;52.992;6.796;2023-12-07T06:40:37;33.97;;;18.35;;
54125;SDS011;40360;52.992;6.796;2023-12-07T06:43:03;32.15;;;18.23;;
54125;SDS011;40360;52.992;6.796;2023-12-07T06:45:29;32.70;;;18.30;;
54125;SDS011;40360;52.992;6.796;2023-12-07T06:47:54;35.05;;;20.23;;
54125;SDS011;40360;52.992;6.796;2023-12-07T06:50:22;32.72;;;18.48;;
54125;SDS011;40360;52.992;6.796;2023-12-07T06:52:47;37.88;;;20.58;;
54125;SDS011;40360;52.992;6.796;2023-12-07T06:55:13;33.88;;;18.05;;
54125;SDS011;40360;52.992;6.796;2023-12-07T06:57:39;36.80;;;19.23;;
54125;SDS011;40360;52.992;6.796;2023-12-07T07:00:05;33.45;;;19.45;;
54125;SDS011;40360;52.992;6.796;2023-12-07T07:02:36;31.38;;;18.92;;
54125;SDS011;40360;52.992;6.796;2023-12-07T07:23:00;40.58;;;19.88;;
54125;SDS011;40360;52.992;6.796;2023-12-07T07:25:26;35.20;;;18.63;;
54125;SDS011;40360;52.992;6.796;2023-12-07T07:27:52;38.28;;;19.90;;
54125;SDS011;40360;52.992;6.796;2023-12-07T07:30:19;33.72;;;19.60;;
54125;SDS011;40360;52.992;6.796;2023-12-07T07:32:48;36.60;;;20.08;;
54125;SDS011;40360;52.992;6.796;2023-12-07T07:35:15;39.67;;;22.77;;
54125;SDS011;40360;52.992;6.796;2023-12-07T07:37:41;43.88;;;23.65;;
54125;SDS011;40360;52.992;6.796;2023-12-07T07:40:07;45.53;;;23.48;;
54125;SDS011;40360;52.992;6.796;2023-12-07T07:42:37;37.67;;;22.40;;
54125;SDS011;40360;52.992;6.796;2023-12-07T07:45:04;42.90;;;22.15;;
54125;SDS011;40360;52.992;6.796;2023-12-07T07:47:31;42.55;;;21.75;;
54125;SDS011;40360;52.992;6.796;2023-12-07T07:49:58;43.40;;;22.05;;
54125;SDS011;40360;52.992;6.796;2023-12-07T07:52:24;39.92;;;22.05;;
54125;SDS011;40360;52.992;6.796;2023-12-07T07:54:50;41.33;;;22.20;;
54125;SDS011;40360;52.992;6.796;2023-12-07T07:57:16;40.00;;;21.58;;
54125;SDS011;40360;52.992;6.796;2023-12-07T07:59:42;36.78;;;21.55;;
54125;SDS011;40360;52.992;6.796;2023-12-07T08:02:08;38.20;;;21.40;;
54125;SDS011;40360;52.992;6.796;2023-12-07T08:04:34;40.50;;;23.55;;
54125;SDS011;40360;52.992;6.796;2023-12-07T08:06:59;46.83;;;24.40;;
54125;SDS011;40360;52.992;6.796;2023-12-07T08:09:25;48.33;;;26.08;;
54125;SDS011;40360;52.992;6.796;2023-12-07T08:11:51;47.80;;;27.67;;
54125;SDS011;40360;52.992;6.796;2023-12-07T08:14:16;52.83;;;27.33;;
54125;SDS011;40360;52.992;6.796;2023-12-07T08:16:43;49.80;;;28.30;;
54125;SDS011;40360;52.992;6.796;2023-12-07T08:19:10;55.55;;;28.77;;
54125;SDS011;40360;52.992;6.796;2023-12-07T08:21:36;49.42;;;27.20;;
54125;SDS011;40360;52.992;6.796;2023-12-07T08:24:02;47.35;;;27.77;;
54125;SDS011;40360;52.992;6.796;2023-12-07T08:26:28;50.00;;;30.13;;
54125;SDS011;40360;52.992;6.796;2023-12-07T08:28:54;49.90;;;29.25;;
54125;SDS011;40360;52.992;6.796;2023-12-07T08:31:20;53.08;;;27.77;;
54125;SDS011;40360;52.992;6.796;2023-12-07T08:33:48;48.88;;;27.35;;
54125;SDS011;40360;52.992;6.796;2023-12-07T08:36:13;46.95;;;27.83;;
54125;SDS011;40360;52.992;6.796;2023-12-07T08:38:41;46.65;;;27.05;;
54125;SDS011;40360;52.992;6.796;2023-12-07T08:41:07;45.40;;;26.42;;
54125;SDS011;40360;52.992;6.796;2023-12-07T08:43:32;50.50;;;26.75;;
54125;SDS011;40360;52.992;6.796;2023-12-07T08:45:58;43.50;;;25.77;;
54125;SDS011;40360;52.992;6.796;2023-12-07T08:48:24;47.83;;;26.13;;
54125;SDS011;40360;52.992;6.796;2023-12-07T08:50:49;44.30;;;25.58;;
54125;SDS011;40360;52.992;6.796;2023-12-07T08:53:16;43.72;;;26.00;;
54125;SDS011;40360;52.992;6.796;2023-12-07T08:55:42;41.08;;;24.50;;
54125;SDS011;40360;52.992;6.796;2023-12-07T08:58:07;40.83;;;24.92;;
54125;SDS011;40360;52.992;6.796;2023-12-07T09:00:35;42.60;;;25.52;;
54125;SDS011;40360;52.992;6.796;2023-12-07T09:03:01;49.97;;;28.40;;
54125;SDS011;40360;52.992;6.796;2023-12-07T09:05:27;44.33;;;24.90;;
54125;SDS011;40360;52.992;6.796;2023-12-07T09:07:54;43.42;;;25.20;;
54125;SDS011;40360;52.992;6.796;2023-12-07T09:10:21;39.03;;;23.88;;
54125;SDS011;40360;52.992;6.796;2023-12-07T09:12:47;37.47;;;22.67;;
54125;SDS011;40360;52.992;6.796;2023-12-07T09:15:13;43.63;;;23.77;;
54125;SDS011;40360;52.992;6.796;2023-12-07T09:17:39;42.75;;;23.98;;
54125;SDS011;40360;52.992;6.796;2023-12-07T09:20:08;39.72;;;22.80;;
54125;SDS011;40360;52.992;6.796;2023-12-07T09:22:39;43.58;;;24.58;;
54125;SDS011;40360;52.992;6.796;2023-12-07T09:25:12;38.72;;;24.27;;
54125;SDS011;40360;52.992;6.796;2023-12-07T09:27:40;34.28;;;22.90;;
54125;SDS011;40360;52.992;6.796;2023-12-07T09:30:06;38.00;;;24.00;;
54125;SDS011;40360;52.992;6.796;2023-12-07T09:32:35;38.35;;;24.45;;
54125;SDS011;40360;52.992;6.796;2023-12-07T09:35:05;43.55;;;25.67;;
54125;SDS011;40360;52.992;6.796;2023-12-07T09:37:40;40.92;;;25.00;;
54125;SDS011;40360;52.992;6.796;2023-12-07T09:40:05;44.50;;;26.23;;
54125;SDS011;40360;52.992;6.796;2023-12-07T09:42:35;39.53;;;24.77;;
54125;SDS011;40360;52.992;6.796;2023-12-07T09:45:01;40.72;;;24.48;;
54125;SDS011;40360;52.992;6.796;2023-12-07T09:47:27;42.35;;;26.00;;
54125;SDS011;40360;52.992;6.796;2023-12-07T09:49:55;41.45;;;24.40;;
54125;SDS011;40360;52.992;6.796;2023-12-07T09:52:22;41.15;;;24.80;;
54125;SDS011;40360;52.992;6.796;2023-12-07T09:54:48;43.45;;;24.85;;
54125;SDS011;40360;52.992;6.796;2023-12-07T09:57:16;39.97;;;24.83;;
54125;SDS011;40360;52.992;6.796;2023-12-07T09:59:42;39.83;;;24.27;;
54125;SDS011;40360;52.992;6.796;2023-12-07T10:02:08;42.70;;;24.38;;
54125;SDS011;40360;52.992;6.796;2023-12-07T10:04:34;41.50;;;23.00;;
54125;SDS011;40360;52.992;6.796;2023-12-07T10:07:01;37.15;;;23.02;;
54125;SDS011;40360;52.992;6.796;2023-12-07T10:09:27;35.95;;;23.73;;
54125;SDS011;40360;52.992;6.796;2023-12-07T10:12:03;35.38;;;22.30;;
54125;SDS011;40360;52.992;6.796;2023-12-07T10:14:29;32.00;;;21.73;;
54125;SDS011;40360;52.992;6.796;2023-12-07T10:16:55;36.55;;;21.77;;
54125;SDS011;40360;52.992;6.796;2023-12-07T10:19:21;32.78;;;21.73;;
54125;SDS011;40360;52.992;6.796;2023-12-07T10:21:51;34.83;;;22.65;;
54125;SDS011;40360;52.992;6.796;2023-12-07T10:24:17;35.95;;;22.25;;
54125;SDS011;40360;52.992;6.796;2023-12-07T10:26:44;35.13;;;21.55;;
54125;SDS011;40360;52.992;6.796;2023-12-07T10:29:11;34.05;;;21.50;;
54125;SDS011;40360;52.992;6.796;2023-12-07T10:31:37;33.58;;;21.65;;
54125;SDS011;40360;52.992;6.796;2023-12-07T10:34:03;36.95;;;21.80;;
54125;SDS011;40360;52.992;6.796;2023-12-07T10:36:30;38.20;;;22.50;;
54125;SDS011;40360;52.992;6.796;2023-12-07T10:38:56;36.05;;;22.67;;
54125;SDS011;40360;52.992;6.796;2023-12-07T10:41:23;34.28;;;20.27;;
54125;SDS011;40360;52.992;6.796;2023-12-07T10:43:54;37.40;;;18.13;;
54125;SDS011;40360;52.992;6.796;2023-12-07T10:46:24;33.33;;;19.98;;
54125;SDS011;40360;52.992;6.796;2023-12-07T10:48:55;32.05;;;18.48;;
54125;SDS011;40360;52.992;6.796;2023-12-07T10:51:41;30.33;;;18.73;;
54125;SDS011;40360;52.992;6.796;2023-12-07T10:54:09;32.97;;;19.08;;
54125;SDS011;40360;52.992;6.796;2023-12-07T10:56:40;32.47;;;19.98;;
54125;SDS011;40360;52.992;6.796;2023-12-07T10:59:09;29.90;;;18.35;;
54125;SDS011;40360;52.992;6.796;2023-12-07T11:01:41;32.50;;;20.42;;
54125;SDS011;40360;52.992;6.796;2023-12-07T11:04:11;45.15;;;18.95;;
54125;SDS011;40360;52.992;6.796;2023-12-07T11:06:39;29.40;;;17.80;;
54125;SDS011;40360;52.992;6.796;2023-12-07T11:09:09;45.70;;;19.45;;
54125;SDS011;40360;52.992;6.796;2023-12-07T11:11:50;36.50;;;20.05;;
54125;SDS011;40360;52.992;6.796;2023-12-07T11:14:16;35.25;;;19.75;;
54125;SDS011;40360;52.992;6.796;2023-12-07T11:16:43;33.20;;;19.73;;
54125;SDS011;40360;52.992;6.796;2023-12-07T11:19:43;33.03;;;19.45;;
54125;SDS011;40360;52.992;6.796;2023-12-07T11:22:09;32.20;;;19.27;;
54125;SDS011;40360;52.992;6.796;2023-12-07T11:24:37;35.00;;;19.42;;
54125;SDS011;40360;52.992;6.796;2023-12-07T11:27:03;43.22;;;21.75;;
54125;SDS011;40360;52.992;6.796;2023-12-07T11:29:29;38.47;;;19.40;;
54125;SDS011;40360;52.992;6.796;2023-12-07T11:31:56;33.70;;;20.65;;
54125;SDS011;40360;52.992;6.796;2023-12-07T11:34:36;34.67;;;19.95;;
54125;SDS011;40360;52.992;6.796;2023-12-07T11:39:35;36.60;;;20.35;;
54125;SDS011;40360;52.992;6.796;2023-12-07T11:42:11;37.00;;;22.45;;
54125;SDS011;40360;52.992;6.796;2023-12-07T11:44:40;31.73;;;19.98;;
54125;SDS011;40360;52.992;6.796;2023-12-07T11:47:07;41.15;;;21.83;;
54125;SDS011;40360;52.992;6.796;2023-12-07T11:49:34;39.55;;;21.48;;
54125;SDS011;40360;52.992;6.796;2023-12-07T11:52:00;40.72;;;21.85;;
54125;SDS011;40360;52.992;6.796;2023-12-07T11:54:36;45.00;;;21.70;;
54125;SDS011;40360;52.992;6.796;2023-12-07T11:57:03;36.72;;;21.83;;
54125;SDS011;40360;52.992;6.796;2023-12-07T11:59:29;54.72;;;24.63;;
54125;SDS011;40360;52.992;6.796;2023-12-07T12:01:58;45.13;;;21.95;;
54125;SDS011;40360;52.992;6.796;2023-12-07T12:04:24;53.63;;;24.13;;
54125;SDS011;40360;52.992;6.796;2023-12-07T12:06:50;54.65;;;24.48;;
54125;SDS011;40360;52.992;6.796;2023-12-07T12:09:16;59.35;;;22.70;;
54125;SDS011;40360;52.992;6.796;2023-12-07T12:11:46;58.55;;;25.25;;
54125;SDS011;40360;52.992;6.796;2023-12-07T12:14:13;60.28;;;24.30;;
54125;SDS011;40360;52.992;6.796;2023-12-07T12:16:41;59.10;;;24.77;;
54125;SDS011;40360;52.992;6.796;2023-12-07T12:19:08;46.10;;;24.40;;
54125;SDS011;40360;52.992;6.796;2023-12-07T12:21:34;62.55;;;27.15;;
54125;SDS011;40360;52.992;6.796;2023-12-07T12:24:03;60.28;;;26.92;;
54125;SDS011;40360;52.992;6.796;2023-12-07T12:26:30;55.65;;;26.60;;
54125;SDS011;40360;52.992;6.796;2023-12-07T12:28:58;53.83;;;26.80;;
54125;SDS011;40360;52.992;6.796;2023-12-07T12:31:24;51.42;;;24.92;;
54125;SDS011;40360;52.992;6.796;2023-12-07T12:33:50;47.95;;;24.45;;
54125;SDS011;40360;52.992;6.796;2023-12-07T12:36:16;58.83;;;25.50;;
54125;SDS011;40360;52.992;6.796;2023-12-07T12:38:48;55.75;;;26.55;;
54125;SDS011;40360;52.992;6.796;2023-12-07T12:41:18;52.67;;;25.65;;
54125;SDS011;40360;52.992;6.796;2023-12-07T12:43:44;58.63;;;26.08;;
54125;SDS011;40360;52.992;6.796;2023-12-07T12:46:11;48.25;;;24.90;;
54125;SDS011;40360;52.992;6.796;2023-12-07T12:48:37;53.90;;;24.15;;
54125;SDS011;40360;52.992;6.796;2023-12-07T12:51:17;46.65;;;21.85;;
54125;SDS011;40360;52.992;6.796;2023-12-07T12:53:45;58.50;;;24.98;;
54125;SDS011;40360;52.992;6.796;2023-12-07T12:56:14;50.60;;;24.52;;
54125;SDS011;40360;52.992;6.796;2023-12-07T12:58:40;52.88;;;24.35;;
54125;SDS011;40360;52.992;6.796;2023-12-07T13:01:06;49.58;;;24.95;;
54125;SDS011;40360;52.992;6.796;2023-12-07T13:03:32;50.60;;;23.60;;
54125;SDS011;40360;52.992;6.796;2023-12-07T13:05:58;45.15;;;24.92;;
54125;SDS011;40360;52.992;6.796;2023-12-07T13:08:24;50.47;;;25.00;;
54125;SDS011;40360;52.992;6.796;2023-12-07T13:10:49;50.38;;;24.30;;
54125;SDS011;40360;52.992;6.796;2023-12-07T13:13:15;57.40;;;25.10;;
54125;SDS011;40360;52.992;6.796;2023-12-07T13:15:41;51.65;;;25.33;;
54125;SDS011;40360;52.992;6.796;2023-12-07T13:18:07;60.92;;;26.88;;
54125;SDS011;40360;52.992;6.796;2023-12-07T13:20:35;72.00;;;28.33;;
54125;SDS011;40360;52.992;6.796;2023-12-07T13:23:04;68.05;;;27.95;;
54125;SDS011;40360;52.992;6.796;2023-12-07T13:25:29;64.43;;;27.30;;
54125;SDS011;40360;52.992;6.796;2023-12-07T13:27:55;74.28;;;29.17;;
54125;SDS011;40360;52.992;6.796;2023-12-07T13:30:21;63.58;;;27.92;;
54125;SDS011;40360;52.992;6.796;2023-12-07T13:32:47;71.90;;;27.88;;
54125;SDS011;40360;52.992;6.796;2023-12-07T13:35:13;82.00;;;30.00;;
54125;SDS011;40360;52.992;6.796;2023-12-07T13:37:38;79.22;;;30.10;;
54125;SDS011;40360;52.992;6.796;2023-12-07T13:40:04;85.25;;;29.00;;
54125;SDS011;40360;52.992;6.796;2023-12-07T13:42:35;70.65;;;28.13;;
54125;SDS011;40360;52.992;6.796;2023-12-07T13:45:02;78.55;;;28.77;;
54125;SDS011;40360;52.992;6.796;2023-12-07T13:47:28;73.57;;;26.98;;
54125;SDS011;40360;52.992;6.796;2023-12-07T13:49:59;71.35;;;27.38;;
54125;SDS011;40360;52.992;6.796;2023-12-07T13:52:26;75.40;;;28.45;;
54125;SDS011;40360;52.992;6.796;2023-12-07T13:54:53;77.78;;;28.77;;
54125;SDS011;40360;52.992;6.796;2023-12-07T13:57:20;76.25;;;28.15;;
54125;SDS011;40360;52.992;6.796;2023-12-07T13:59:46;87.03;;;29.02;;
54125;SDS011;40360;52.992;6.796;2023-12-07T14:02:12;85.50;;;30.77;;
54125;SDS011;40360;52.992;6.796;2023-12-07T14:04:38;75.97;;;28.55;;
54125;SDS011;40360;52.992;6.796;2023-12-07T14:07:08;80.38;;;28.90;;
54125;SDS011;40360;52.992;6.796;2023-12-07T14:09:39;91.40;;;29.75;;
54125;SDS011;40360;52.992;6.796;2023-12-07T14:12:05;96.43;;;31.55;;
54125;SDS011;40360;52.992;6.796;2023-12-07T14:14:31;92.88;;;29.83;;
54125;SDS011;40360;52.992;6.796;2023-12-07T14:16:57;103.70;;;30.48;;
54125;SDS011;40360;52.992;6.796;2023-12-07T14:19:23;99.45;;;32.10;;
54125;SDS011;40360;52.992;6.796;2023-12-07T14:21:49;100.47;;;32.92;;
54125;SDS011;40360;52.992;6.796;2023-12-07T14:24:14;105.60;;;33.97;;
54125;SDS011;40360;52.992;6.796;2023-12-07T14:26:43;120.13;;;35.10;;
54125;SDS011;40360;52.992;6.796;2023-12-07T14:29:09;99.60;;;31.65;;
54125;SDS011;40360;52.992;6.796;2023-12-07T14:31:40;115.07;;;33.58;;
54125;SDS011;40360;52.992;6.796;2023-12-07T14:34:06;115.60;;;34.35;;
54125;SDS011;40360;52.992;6.796;2023-12-07T14:36:31;123.75;;;35.65;;
54125;SDS011;40360;52.992;6.796;2023-12-07T14:38:57;126.03;;;37.58;;
54125;SDS011;40360;52.992;6.796;2023-12-07T14:41:23;132.13;;;37.75;;